sensor_id;sensor_type;location;lat;lon;timestamp;pressure;altitude;pressure_sealevel;temperature;humidity
58367;BME280;57745;42.524;12.052;2023-04-28T00:01:26;96769.81;;;19.15;38.37
58367;BME280;57745;42.524;12.052;2023-04-28T00:03:51;96770.81;;;19.17;38.24
58367;BME280;57745;42.524;12.052;2023-04-28T00:06:17;96769.03;;;18.99;38.63
58367;BME280;57745;42.524;12.052;2023-04-28T00:08:42;96767.41;;;19.08;38.39
58367;BME280;57745;42.524;12.052;2023-04-28T00:11:09;96767.41;;;19.08;38.39
58367;BME280;57745;42.524;12.052;2023-04-28T00:13:35;96767.41;;;19.08;38.73
58367;BME280;57745;42.524;12.052;2023-04-28T00:16:00;96773.69;;;19.08;38.95
58367;BME280;57745;42.524;12.052;2023-04-28T00:18:26;96765.06;;;19.00;39.05
58367;BME280;57745;42.524;12.052;2023-04-28T00:20:54;96764.31;;;19.15;38.87
58367;BME280;57745;42.524;12.052;2023-04-28T00:23:19;96769.53;;;19.13;38.94
58367;BME280;57745;42.524;12.052;2023-04-28T00:25:59;96766.78;;;19.13;38.92
58367;BME280;57745;42.524;12.052;2023-04-28T00:28:25;96764.31;;;19.15;38.86
58367;BME280;57745;42.524;12.052;2023-04-28T00:30:50;96771.03;;;18.99;38.89
58367;BME280;57745;42.524;12.052;2023-04-28T00:33:16;96757.94;;;19.09;38.92
58367;BME280;57745;42.524;12.052;2023-04-28T00:35:41;96771.13;;;19.05;39.08
58367;BME280;57745;42.524;12.052;2023-04-28T00:38:07;96759.56;;;19.00;38.95
58367;BME280;57745;42.524;12.052;2023-04-28T00:40:36;96761.28;;;18.98;39.03
58367;BME280;57745;42.524;12.052;2023-04-28T00:43:02;96764.88;;;18.89;39.37
58367;BME280;57745;42.524;12.052;2023-04-28T00:45:28;96760.88;;;19.05;38.91
58367;BME280;57745;42.524;12.052;2023-04-28T00:47:54;96756.91;;;19.06;38.99
58367;BME280;57745;42.524;12.052;2023-04-28T00:50:23;96747.81;;;19.00;39.33
58367;BME280;57745;42.524;12.052;2023-04-28T00:52:50;96761.28;;;18.98;39.49
58367;BME280;57745;42.524;12.052;2023-04-28T00:55:17;96756.91;;;19.21;39.21
58367;BME280;57745;42.524;12.052;2023-04-28T00:57:42;96756.31;;;19.17;39.59
58367;BME280;57745;42.524;12.052;2023-04-28T01:00:09;96755.13;;;19.03;39.69
58367;BME280;57745;42.524;12.052;2023-04-28T01:02:35;96752.09;;;19.01;39.99
58367;BME280;57745;42.524;12.052;2023-04-28T01:05:02;96748.19;;;18.93;40.30
58367;BME280;57745;42.524;12.052;2023-04-28T01:07:30;96746.00;;;19.12;40.10
58367;BME280;57745;42.524;12.052;2023-04-28T01:09:56;96759.09;;;18.87;40.71
58367;BME280;57745;42.524;12.052;2023-04-28T01:12:21;96767.72;;;18.95;40.34
58367;BME280;57745;42.524;12.052;2023-04-28T01:14:48;96759.19;;;19.08;40.07
58367;BME280;57745;42.524;12.052;2023-04-28T01:17:15;96766.47;;;19.11;40.16
58367;BME280;57745;42.524;12.052;2023-04-28T01:19:41;96759.84;;;19.02;40.15
58367;BME280;57745;42.524;12.052;2023-04-28T01:22:07;96766.78;;;19.13;40.09
58367;BME280;57745;42.524;12.052;2023-04-28T01:24:34;96769.22;;;19.11;40.13
58367;BME280;57745;42.524;12.052;2023-04-28T01:27:00;96764.59;;;19.02;40.28
58367;BME280;57745;42.524;12.052;2023-04-28T01:29:25;96770.75;;;18.97;40.41
58367;BME280;57745;42.524;12.052;2023-04-28T01:31:51;96772.25;;;19.27;39.87
58367;BME280;57745;42.524;12.052;2023-04-28T01:34:17;96769.88;;;19.06;40.26
58367;BME280;57745;42.524;12.052;2023-04-28T01:36:42;96775.97;;;19.10;40.25
58367;BME280;57745;42.524;12.052;2023-04-28T01:39:08;96773.84;;;19.05;40.07
58367;BME280;57745;42.524;12.052;2023-04-28T01:41:33;96776.63;;;18.90;40.35
58367;BME280;57745;42.524;12.052;2023-04-28T01:43:59;96773.09;;;19.04;40.11
58367;BME280;57745;42.524;12.052;2023-04-28T01:46:25;96761.44;;;18.94;40.00
58367;BME280;57745;42.524;12.052;2023-04-28T01:48:50;96768.94;;;18.94;40.07
58367;BME280;57745;42.524;12.052;2023-04-28T01:51:16;96765.06;;;19.15;39.70
58367;BME280;57745;42.524;12.052;2023-04-28T01:53:41;96777.59;;;19.01;39.84
58367;BME280;57745;42.524;12.052;2023-04-28T01:56:07;96772.66;;;18.91;39.89
58367;BME280;57745;42.524;12.052;2023-04-28T01:58:32;96774.53;;;18.85;39.71
58367;BME280;57745;42.524;12.052;2023-04-28T02:00:59;96773.19;;;18.80;39.85
58367;BME280;57745;42.524;12.052;2023-04-28T02:03:25;96770.72;;;18.82;39.63
58367;BME280;57745;42.524;12.052;2023-04-28T02:05:52;96777.44;;;18.81;39.75
58367;BME280;57745;42.524;12.052;2023-04-28T02:08:17;96782.03;;;18.99;39.03
58367;BME280;57745;42.524;12.052;2023-04-28T02:10:42;96776.22;;;18.82;39.34
58367;BME280;57745;42.524;12.052;2023-04-28T02:13:09;96781.72;;;18.82;39.17
58367;BME280;57745;42.524;12.052;2023-04-28T02:15:39;96781.69;;;18.67;39.80
58367;BME280;57745;42.524;12.052;2023-04-28T02:18:04;96786.28;;;18.85;39.54
58367;BME280;57745;42.524;12.052;2023-04-28T02:20:29;96780.66;;;18.65;40.17
58367;BME280;57745;42.524;12.052;2023-04-28T02:22:55;96791.19;;;18.67;40.06
58367;BME280;57745;42.524;12.052;2023-04-28T02:25:20;96792.69;;;18.67;40.14
58367;BME280;57745;42.524;12.052;2023-04-28T02:27:46;96791.56;;;18.74;40.10
58367;BME280;57745;42.524;12.052;2023-04-28T02:30:12;96803.41;;;18.80;39.98
58367;BME280;57745;42.524;12.052;2023-04-28T02:32:37;96797.75;;;18.84;40.05
58367;BME280;57745;42.524;12.052;2023-04-28T02:35:03;96799.31;;;18.61;40.40
58367;BME280;57745;42.524;12.052;2023-04-28T02:37:29;96791.19;;;18.81;40.01
58367;BME280;57745;42.524;12.052;2023-04-28T02:39:54;96797.25;;;18.71;39.91
58367;BME280;57745;42.524;12.052;2023-04-28T02:42:20;96792.22;;;18.69;40.12
58367;BME280;57745;42.524;12.052;2023-04-28T02:44:45;96784.84;;;18.75;40.02
58367;BME280;57745;42.524;12.052;2023-04-28T02:47:10;96788.81;;;18.74;39.77
58367;BME280;57745;42.524;12.052;2023-04-28T02:49:36;96779.44;;;18.66;40.06
58367;BME280;57745;42.524;12.052;2023-04-28T02:52:01;96783.41;;;18.65;40.09
58367;BME280;57745;42.524;12.052;2023-04-28T02:54:27;96786.16;;;18.65;40.11
58367;BME280;57745;42.524;12.052;2023-04-28T02:56:56;96782.13;;;18.51;40.03
58367;BME280;57745;42.524;12.052;2023-04-28T02:59:24;96780.00;;;18.70;39.66
58367;BME280;57745;42.524;12.052;2023-04-28T03:01:49;96786.94;;;18.80;39.44
58367;BME280;57745;42.524;12.052;2023-04-28T03:04:16;96782.09;;;18.75;39.75
58367;BME280;57745;42.524;12.052;2023-04-28T03:06:41;96783.81;;;18.87;39.86
58367;BME280;57745;42.524;12.052;2023-04-28T03:09:07;96783.97;;;18.69;39.73
58367;BME280;57745;42.524;12.052;2023-04-28T03:11:33;96782.00;;;18.46;40.36
58367;BME280;57745;42.524;12.052;2023-04-28T03:13:58;96782.75;;;18.46;40.47
58367;BME280;57745;42.524;12.052;2023-04-28T03:16:24;96788.84;;;18.50;40.52
58367;BME280;57745;42.524;12.052;2023-04-28T03:18:49;96789.09;;;18.61;40.34
58367;BME280;57745;42.524;12.052;2023-04-28T03:21:15;96785.59;;;18.61;40.36
58367;BME280;57745;42.524;12.052;2023-04-28T03:23:40;96784.94;;;18.42;40.58
58367;BME280;57745;42.524;12.052;2023-04-28T03:26:06;96791.31;;;18.48;40.09
58367;BME280;57745;42.524;12.052;2023-04-28T03:28:32;96782.28;;;18.72;39.20
58367;BME280;57745;42.524;12.052;2023-04-28T03:30:57;96793.19;;;18.66;39.59
58367;BME280;57745;42.524;12.052;2023-04-28T03:33:22;96797.03;;;18.59;39.62
58367;BME280;57745;42.524;12.052;2023-04-28T03:35:48;96806.66;;;18.55;39.68
58367;BME280;57745;42.524;12.052;2023-04-28T03:38:13;96802.13;;;18.52;39.68
58367;BME280;57745;42.524;12.052;2023-04-28T03:40:39;96794.75;;;18.58;39.52
58367;BME280;57745;42.524;12.052;2023-04-28T03:43:05;96791.69;;;18.56;39.80
58367;BME280;57745;42.524;12.052;2023-04-28T03:45:31;96791.59;;;18.50;40.03
58367;BME280;57745;42.524;12.052;2023-04-28T03:47:57;96790.84;;;18.50;39.66
58367;BME280;57745;42.524;12.052;2023-04-28T03:50:22;96791.00;;;18.46;39.98
58367;BME280;57745;42.524;12.052;2023-04-28T03:52:47;96795.75;;;18.46;39.81
58367;BME280;57745;42.524;12.052;2023-04-28T03:55:13;96799.66;;;18.54;39.71
58367;BME280;57745;42.524;12.052;2023-04-28T03:57:40;96794.75;;;18.58;39.84
58367;BME280;57745;42.524;12.052;2023-04-28T04:00:06;96782.84;;;18.37;40.14
58367;BME280;57745;42.524;12.052;2023-04-28T04:02:32;96787.88;;;18.39;40.07
58367;BME280;57745;42.524;12.052;2023-04-28T04:04:57;96795.09;;;18.51;39.69
58367;BME280;57745;42.524;12.052;2023-04-28T04:07:22;96784.66;;;18.40;39.95
58367;BME280;57745;42.524;12.052;2023-04-28T04:09:48;96785.03;;;18.48;39.81
58367;BME280;57745;42.524;12.052;2023-04-28T04:12:15;96787.06;;;18.23;40.24
58367;BME280;57745;42.524;12.052;2023-04-28T04:14:40;96787.66;;;18.27;39.94
58367;BME280;57745;42.524;12.052;2023-04-28T04:17:06;96793.91;;;18.43;39.57
58367;BME280;57745;42.524;12.052;2023-04-28T04:19:31;96792.06;;;18.49;39.67
58367;BME280;57745;42.524;12.052;2023-04-28T04:21:57;96798.94;;;18.29;40.17
58367;BME280;57745;42.524;12.052;2023-04-28T04:24:22;96804.56;;;18.50;39.59
58367;BME280;57745;42.524;12.052;2023-04-28T04:26:49;96799.78;;;18.36;40.03
58367;BME280;57745;42.524;12.052;2023-04-28T04:29:14;96794.03;;;18.48;39.84
58367;BME280;57745;42.524;12.052;2023-04-28T04:31:40;96801.00;;;18.35;40.24
58367;BME280;57745;42.524;12.052;2023-04-28T04:34:05;96800.72;;;18.33;39.80
58367;BME280;57745;42.524;12.052;2023-04-28T04:36:31;96804.69;;;18.31;40.14
58367;BME280;57745;42.524;12.052;2023-04-28T04:38:57;96808.09;;;18.26;40.20
58367;BME280;57745;42.524;12.052;2023-04-28T04:41:24;96815.66;;;18.31;40.26
58367;BME280;57745;42.524;12.052;2023-04-28T04:43:49;96817.72;;;18.22;40.46
58367;BME280;57745;42.524;12.052;2023-04-28T04:46:15;96824.31;;;18.39;40.34
58367;BME280;57745;42.524;12.052;2023-04-28T04:48:40;96824.19;;;18.34;40.30
58367;BME280;57745;42.524;12.052;2023-04-28T04:51:06;96825.88;;;18.55;39.94
58367;BME280;57745;42.524;12.052;2023-04-28T04:53:31;96823.03;;;18.49;40.08
58367;BME280;57745;42.524;12.052;2023-04-28T04:55:57;96830.75;;;18.36;40.31
58367;BME280;57745;42.524;12.052;2023-04-28T04:58:23;96828.16;;;18.33;40.31
58367;BME280;57745;42.524;12.052;2023-04-28T05:00:48;96831.53;;;18.60;39.76
58367;BME280;57745;42.524;12.052;2023-04-28T05:03:14;96838.25;;;18.59;39.54
58367;BME280;57745;42.524;12.052;2023-04-28T05:05:40;96834.72;;;18.59;39.66
58367;BME280;57745;42.524;12.052;2023-04-28T05:08:06;96831.56;;;18.51;39.91
58367;BME280;57745;42.524;12.052;2023-04-28T05:10:33;96834.59;;;18.53;40.04
58367;BME280;57745;42.524;12.052;2023-04-28T05:12:58;96829.34;;;18.41;40.06
58367;BME280;57745;42.524;12.052;2023-04-28T05:15:24;96832.72;;;18.36;40.28
58367;BME280;57745;42.524;12.052;2023-04-28T05:17:49;96839.38;;;18.44;40.41
58367;BME280;57745;42.524;12.052;2023-04-28T05:20:15;96845.47;;;18.48;40.30
58367;BME280;57745;42.524;12.052;2023-04-28T05:22:40;96845.25;;;18.37;40.57
58367;BME280;57745;42.524;12.052;2023-04-28T05:25:06;96849.91;;;18.69;40.17
58367;BME280;57745;42.524;12.052;2023-04-28T05:27:31;96849.09;;;18.54;40.12
58367;BME280;57745;42.524;12.052;2023-04-28T05:29:57;96840.81;;;18.63;39.75
58367;BME280;57745;42.524;12.052;2023-04-28T05:32:24;96839.13;;;18.42;40.44
58367;BME280;57745;42.524;12.052;2023-04-28T05:34:49;96836.25;;;18.60;40.11
58367;BME280;57745;42.524;12.052;2023-04-28T05:37:14;96832.09;;;18.41;39.90
58367;BME280;57745;42.524;12.052;2023-04-28T05:39:40;96837.06;;;18.51;39.61
58367;BME280;57745;42.524;12.052;2023-04-28T05:42:05;96840.28;;;18.50;39.71
58367;BME280;57745;42.524;12.052;2023-04-28T05:44:31;96834.94;;;18.70;39.31
58367;BME280;57745;42.524;12.052;2023-04-28T05:46:56;96842.16;;;18.82;39.50
58367;BME280;57745;42.524;12.052;2023-04-28T05:49:22;96836.09;;;18.63;39.90
58367;BME280;57745;42.524;12.052;2023-04-28T05:51:48;96846.88;;;18.67;39.68
58367;BME280;57745;42.524;12.052;2023-04-28T05:54:13;96864.00;;;18.62;40.02
58367;BME280;57745;42.524;12.052;2023-04-28T05:56:39;96859.97;;;18.72;39.79
58367;BME280;57745;42.524;12.052;2023-04-28T05:59:04;96853.31;;;18.64;39.95
58367;BME280;57745;42.524;12.052;2023-04-28T06:01:30;96850.00;;;18.60;40.04
58367;BME280;57745;42.524;12.052;2023-04-28T06:03:56;96851.81;;;18.63;39.91
58367;BME280;57745;42.524;12.052;2023-04-28T06:06:23;96856.00;;;18.49;39.94
58367;BME280;57745;42.524;12.052;2023-04-28T06:08:48;96852.31;;;18.76;38.99
58367;BME280;57745;42.524;12.052;2023-04-28T06:11:14;96853.63;;;18.81;39.04
58367;BME280;57745;42.524;12.052;2023-04-28T06:13:39;96853.38;;;18.79;39.04
58367;BME280;57745;42.524;12.052;2023-04-28T06:16:05;96854.22;;;18.85;39.02
58367;BME280;57745;42.524;12.052;2023-04-28T06:18:31;96869.47;;;18.86;39.01
58367;BME280;57745;42.524;12.052;2023-04-28T06:20:57;96862.41;;;18.70;39.24
58367;BME280;57745;42.524;12.052;2023-04-28T06:23:22;96867.91;;;18.70;39.44
58367;BME280;57745;42.524;12.052;2023-04-28T06:25:48;96885.00;;;18.74;39.68
58367;BME280;57745;42.524;12.052;2023-04-28T06:28:13;96880.81;;;19.02;38.87
58367;BME280;57745;42.524;12.052;2023-04-28T06:30:39;96878.88;;;18.94;38.91
58367;BME280;57745;42.524;12.052;2023-04-28T06:33:05;96876.81;;;19.04;38.38
58367;BME280;57745;42.524;12.052;2023-04-28T06:35:31;96884.44;;;18.85;38.40
58367;BME280;57745;42.524;12.052;2023-04-28T06:37:59;96892.31;;;18.77;38.30
58367;BME280;57745;42.524;12.052;2023-04-28T06:40:25;96893.31;;;18.80;37.07
58367;BME280;57745;42.524;12.052;2023-04-28T06:42:51;96890.72;;;18.85;36.78
58367;BME280;57745;42.524;12.052;2023-04-28T06:45:16;96896.59;;;18.93;37.26
58367;BME280;57745;42.524;12.052;2023-04-28T06:47:42;96886.31;;;19.02;37.32
58367;BME280;57745;42.524;12.052;2023-04-28T06:50:08;96896.41;;;18.96;37.43
58367;BME280;57745;42.524;12.052;2023-04-28T06:52:33;96901.63;;;18.94;37.11
58367;BME280;57745;42.524;12.052;2023-04-28T06:54:59;96904.75;;;18.87;37.63
58367;BME280;57745;42.524;12.052;2023-04-28T06:57:25;96905.88;;;18.95;37.94
58367;BME280;57745;42.524;12.052;2023-04-28T06:59:51;96913.66;;;18.97;38.18
58367;BME280;57745;42.524;12.052;2023-04-28T07:02:17;96914.06;;;19.05;38.36
58367;BME280;57745;42.524;12.052;2023-04-28T07:04:48;96905.16;;;19.10;38.46
58367;BME280;57745;42.524;12.052;2023-04-28T07:07:14;96909.91;;;19.09;37.47
58367;BME280;57745;42.524;12.052;2023-04-28T07:09:40;96913.31;;;19.19;36.72
58367;BME280;57745;42.524;12.052;2023-04-28T07:12:05;96915.56;;;18.91;35.33
58367;BME280;57745;42.524;12.052;2023-04-28T07:14:31;96921.75;;;19.00;34.02
58367;BME280;57745;42.524;12.052;2023-04-28T07:16:57;96923.91;;;18.96;33.89
58367;BME280;57745;42.524;12.052;2023-04-28T07:19:23;96917.50;;;19.14;34.04
58367;BME280;57745;42.524;12.052;2023-04-28T07:21:49;96920.13;;;19.09;33.97
58367;BME280;57745;42.524;12.052;2023-04-28T07:24:15;96918.38;;;19.35;33.99
58367;BME280;57745;42.524;12.052;2023-04-28T07:26:40;96915.34;;;19.33;33.55
58367;BME280;57745;42.524;12.052;2023-04-28T07:29:06;96913.06;;;19.31;33.97
58367;BME280;57745;42.524;12.052;2023-04-28T07:31:33;96912.84;;;19.20;34.09
58367;BME280;57745;42.524;12.052;2023-04-28T07:33:58;96913.19;;;19.37;33.52
58367;BME280;57745;42.524;12.052;2023-04-28T07:36:24;96915.94;;;19.37;33.86
58367;BME280;57745;42.524;12.052;2023-04-28T07:38:50;96914.69;;;19.23;33.85
58367;BME280;57745;42.524;12.052;2023-04-28T07:41:16;96921.91;;;19.35;33.97
58367;BME280;57745;42.524;12.052;2023-04-28T07:43:41;96928.00;;;19.54;33.19
58367;BME280;57745;42.524;12.052;2023-04-28T07:46:06;96926.41;;;19.62;33.68
58367;BME280;57745;42.524;12.052;2023-04-28T07:48:33;96924.22;;;19.66;33.66
58367;BME280;57745;42.524;12.052;2023-04-28T07:50:59;96932.47;;;19.66;33.50
58367;BME280;57745;42.524;12.052;2023-04-28T07:53:24;96921.84;;;19.74;33.52
58367;BME280;57745;42.524;12.052;2023-04-28T07:55:50;96923.84;;;19.73;33.58
58367;BME280;57745;42.524;12.052;2023-04-28T07:58:15;96916.44;;;19.50;33.09
58367;BME280;57745;42.524;12.052;2023-04-28T08:00:41;96911.50;;;19.54;33.02
58367;BME280;57745;42.524;12.052;2023-04-28T08:03:06;96912.06;;;19.58;33.33
58367;BME280;57745;42.524;12.052;2023-04-28T08:05:33;96909.13;;;19.62;33.67
58367;BME280;57745;42.524;12.052;2023-04-28T08:07:58;96909.59;;;19.60;33.31
58367;BME280;57745;42.524;12.052;2023-04-28T08:10:24;96911.22;;;19.67;33.71
58367;BME280;57745;42.524;12.052;2023-04-28T08:12:51;96914.63;;;19.62;32.70
58367;BME280;57745;42.524;12.052;2023-04-28T08:15:16;96909.69;;;19.66;32.35
58367;BME280;57745;42.524;12.052;2023-04-28T08:17:41;96927.06;;;19.57;32.16
58367;BME280;57745;42.524;12.052;2023-04-28T08:20:08;96916.06;;;19.57;31.81
58367;BME280;57745;42.524;12.052;2023-04-28T08:22:34;96919.09;;;19.59;31.74
58367;BME280;57745;42.524;12.052;2023-04-28T08:25:00;96917.09;;;19.75;31.49
58367;BME280;57745;42.524;12.052;2023-04-28T08:27:25;96914.34;;;19.60;31.33
58367;BME280;57745;42.524;12.052;2023-04-28T08:29:51;96909.03;;;19.71;31.61
58367;BME280;57745;42.524;12.052;2023-04-28T08:32:17;96901.44;;;19.66;30.92
58367;BME280;57745;42.524;12.052;2023-04-28T08:34:44;96909.03;;;19.86;31.50
58367;BME280;57745;42.524;12.052;2023-04-28T08:37:09;96907.91;;;19.78;31.64
58367;BME280;57745;42.524;12.052;2023-04-28T08:39:35;96910.94;;;19.65;32.21
58367;BME280;57745;42.524;12.052;2023-04-28T08:42:04;96919.84;;;19.89;32.32
58367;BME280;57745;42.524;12.052;2023-04-28T08:44:39;96912.72;;;19.83;32.53
58367;BME280;57745;42.524;12.052;2023-04-28T08:47:35;96909.50;;;19.84;32.54
58367;BME280;57745;42.524;12.052;2023-04-28T08:50:02;96905.22;;;19.98;32.10
58367;BME280;57745;42.524;12.052;2023-04-28T08:52:29;96914.91;;;19.79;32.36
58367;BME280;57745;42.524;12.052;2023-04-28T08:54:58;96902.19;;;19.96;32.18
58367;BME280;57745;42.524;12.052;2023-04-28T08:57:25;96904.47;;;19.83;32.53
58367;BME280;57745;42.524;12.052;2023-04-28T08:59:52;96909.59;;;19.90;32.41
58367;BME280;57745;42.524;12.052;2023-04-28T09:02:18;96909.69;;;19.81;32.46
58367;BME280;57745;42.524;12.052;2023-04-28T09:04:47;96916.81;;;19.87;32.60
58367;BME280;57745;42.524;12.052;2023-04-28T09:07:13;96917.00;;;19.98;32.54
58367;BME280;57745;42.524;12.052;2023-04-28T09:09:39;96918.34;;;19.88;32.67
58367;BME280;57745;42.524;12.052;2023-04-28T09:12:09;96925.91;;;19.93;32.79
58367;BME280;57745;42.524;12.052;2023-04-28T09:14:36;96921.34;;;20.05;32.63
58367;BME280;57745;42.524;12.052;2023-04-28T09:17:08;96908.44;;;19.96;31.93
58367;BME280;57745;42.524;12.052;2023-04-28T09:19:35;96916.59;;;20.05;31.91
58367;BME280;57745;42.524;12.052;2023-04-28T09:22:02;96909.19;;;20.12;32.10
58367;BME280;57745;42.524;12.052;2023-04-28T09:24:33;96920.56;;;20.04;32.55
58367;BME280;57745;42.524;12.052;2023-04-28T09:27:00;96917.16;;;20.09;32.21
58367;BME280;57745;42.524;12.052;2023-04-28T09:29:30;96927.59;;;20.05;32.40
58367;BME280;57745;42.524;12.052;2023-04-28T09:32:12;96932.91;;;20.09;32.49
58367;BME280;57745;42.524;12.052;2023-04-28T09:34:45;96924.94;;;20.11;32.71
58367;BME280;57745;42.524;12.052;2023-04-28T09:37:21;96928.94;;;20.10;32.70
58367;BME280;57745;42.524;12.052;2023-04-28T09:39:51;96928.28;;;20.15;33.02
58367;BME280;57745;42.524;12.052;2023-04-28T09:42:42;96914.28;;;20.19;32.95
58367;BME280;57745;42.524;12.052;2023-04-28T09:45:10;96921.13;;;20.23;32.75
58367;BME280;57745;42.524;12.052;2023-04-28T09:47:39;96914.09;;;20.22;32.66
58367;BME280;57745;42.524;12.052;2023-04-28T09:50:10;96915.63;;;20.23;32.77
58367;BME280;57745;42.524;12.052;2023-04-28T09:52:54;96920.56;;;20.19;33.08
58367;BME280;57745;42.524;12.052;2023-04-28T09:55:21;96918.75;;;20.16;32.80
58367;BME280;57745;42.524;12.052;2023-04-28T09:57:48;96908.75;;;20.33;33.04
58367;BME280;57745;42.524;12.052;2023-04-28T10:00:14;96907.25;;;20.18;33.31
58367;BME280;57745;42.524;12.052;2023-04-28T10:02:41;96898.63;;;20.25;33.49
58367;BME280;57745;42.524;12.052;2023-04-28T10:05:08;96901.75;;;20.18;34.30
58367;BME280;57745;42.524;12.052;2023-04-28T10:07:34;96907.91;;;20.27;34.64
58367;BME280;57745;42.524;12.052;2023-04-28T10:10:00;96911.03;;;20.35;34.68
58367;BME280;57745;42.524;12.052;2023-04-28T10:12:26;96909.34;;;20.37;35.12
58367;BME280;57745;42.524;12.052;2023-04-28T10:14:52;96908.94;;;20.30;35.45
58367;BME280;57745;42.524;12.052;2023-04-28T10:17:21;96901.56;;;20.36;35.74
58367;BME280;57745;42.524;12.052;2023-04-28T10:19:51;96905.41;;;20.29;36.22
58367;BME280;57745;42.524;12.052;2023-04-28T10:22:55;96900.94;;;20.32;36.70
58367;BME280;57745;42.524;12.052;2023-04-28T10:25:27;96906.66;;;20.43;37.36
58367;BME280;57745;42.524;12.052;2023-04-28T10:27:55;96894.41;;;20.29;38.18
58367;BME280;57745;42.524;12.052;2023-04-28T10:30:23;96892.00;;;20.52;38.28
58367;BME280;57745;42.524;12.052;2023-04-28T10:35:46;96891.84;;;20.40;39.50
58367;BME280;57745;42.524;12.052;2023-04-28T10:38:16;96893.50;;;20.53;39.78
58367;BME280;57745;42.524;12.052;2023-04-28T10:40:52;96882.75;;;20.55;40.20
58367;BME280;57745;42.524;12.052;2023-04-28T10:48:19;96888.53;;;20.57;40.72
58367;BME280;57745;42.524;12.052;2023-04-28T10:56:14;96893.91;;;20.66;41.07
58367;BME280;57745;42.524;12.052;2023-04-28T10:58:42;96890.34;;;20.60;41.62
58367;BME280;57745;42.524;12.052;2023-04-28T11:04:07;96872.84;;;20.63;42.05
58367;BME280;57745;42.524;12.052;2023-04-28T11:06:39;96873.88;;;20.65;42.09
58367;BME280;57745;42.524;12.052;2023-04-28T11:12:04;96871.19;;;20.71;42.03
58367;BME280;57745;42.524;12.052;2023-04-28T11:14:35;96873.09;;;20.65;42.77
58367;BME280;57745;42.524;12.052;2023-04-28T11:17:02;96890.81;;;20.78;42.69
58367;BME280;57745;42.524;12.052;2023-04-28T11:21:59;96876.78;;;20.76;43.37
58367;BME280;57745;42.524;12.052;2023-04-28T11:24:26;96866.63;;;20.68;43.23
58367;BME280;57745;42.524;12.052;2023-04-28T11:26:58;96858.25;;;20.77;43.16
58367;BME280;57745;42.524;12.052;2023-04-28T11:29:38;96865.75;;;20.76;43.48
58367;BME280;57745;42.524;12.052;2023-04-28T11:32:04;96863.59;;;20.86;43.01
58367;BME280;57745;42.524;12.052;2023-04-28T11:34:30;96861.06;;;20.83;43.01
58367;BME280;57745;42.524;12.052;2023-04-28T11:36:57;96865.59;;;20.86;43.10
58367;BME280;57745;42.524;12.052;2023-04-28T11:39:27;96863.53;;;20.80;43.59
58367;BME280;57745;42.524;12.052;2023-04-28T11:41:53;96862.44;;;20.72;43.77
58367;BME280;57745;42.524;12.052;2023-04-28T11:44:22;96862.00;;;20.79;43.54
58367;BME280;57745;42.524;12.052;2023-04-28T11:46:53;96866.38;;;20.86;43.45
58367;BME280;57745;42.524;12.052;2023-04-28T11:49:23;96861.25;;;20.79;43.82
58367;BME280;57745;42.524;12.052;2023-04-28T11:51:50;96869.94;;;20.72;44.26
58367;BME280;57745;42.524;12.052;2023-04-28T11:54:23;96873.69;;;20.89;43.47
58367;BME280;57745;42.524;12.052;2023-04-28T11:56:50;96867.03;;;20.81;43.69
58367;BME280;57745;42.524;12.052;2023-04-28T11:59:16;96870.00;;;20.77;43.85
58367;BME280;57745;42.524;12.052;2023-04-28T12:04:11;96870.50;;;20.76;43.92
58367;BME280;57745;42.524;12.052;2023-04-28T12:06:37;96855.75;;;20.79;43.85
58367;BME280;57745;42.524;12.052;2023-04-28T12:09:17;96865.81;;;20.82;43.67
58367;BME280;57745;42.524;12.052;2023-04-28T12:11:57;96851.53;;;20.84;43.65
58367;BME280;57745;42.524;12.052;2023-04-28T12:14:23;96847.06;;;20.86;43.91
58367;BME280;57745;42.524;12.052;2023-04-28T12:16:49;96850.50;;;20.81;44.01
58367;BME280;57745;42.524;12.052;2023-04-28T12:19:15;96843.47;;;20.80;44.24
58367;BME280;57745;42.524;12.052;2023-04-28T12:21:41;96842.66;;;20.74;44.52
58367;BME280;57745;42.524;12.052;2023-04-28T12:24:18;96842.03;;;20.85;43.98
58367;BME280;57745;42.524;12.052;2023-04-28T12:26:44;96840.72;;;20.80;44.12
58367;BME280;57745;42.524;12.052;2023-04-28T12:32:02;96839.06;;;20.88;43.70
58367;BME280;57745;42.524;12.052;2023-04-28T12:34:28;96834.16;;;20.77;44.67
58367;BME280;57745;42.524;12.052;2023-04-28T12:36:55;96835.00;;;20.84;44.05
58367;BME280;57745;42.524;12.052;2023-04-28T12:39:21;96838.69;;;20.75;44.47
58367;BME280;57745;42.524;12.052;2023-04-28T12:41:47;96838.69;;;20.75;44.44
58367;BME280;57745;42.524;12.052;2023-04-28T12:44:13;96844.31;;;20.86;44.53
58367;BME280;57745;42.524;12.052;2023-04-28T12:46:40;96839.00;;;20.83;44.56
58367;BME280;57745;42.524;12.052;2023-04-28T12:49:05;96837.56;;;20.87;44.17
58367;BME280;57745;42.524;12.052;2023-04-28T12:51:31;96831.28;;;20.87;44.07
58367;BME280;57745;42.524;12.052;2023-04-28T12:53:59;96827.34;;;20.93;44.06
58367;BME280;57745;42.524;12.052;2023-04-28T12:56:25;96828.72;;;20.83;44.68
58367;BME280;57745;42.524;12.052;2023-04-28T12:58:51;96833.56;;;20.88;44.67
58367;BME280;57745;42.524;12.052;2023-04-28T13:01:16;96829.06;;;20.91;44.46
58367;BME280;57745;42.524;12.052;2023-04-28T13:03:42;96829.50;;;20.84;44.31
58367;BME280;57745;42.524;12.052;2023-04-28T13:06:08;96830.81;;;20.88;43.92
58367;BME280;57745;42.524;12.052;2023-04-28T13:08:35;96834.25;;;20.83;44.54
58367;BME280;57745;42.524;12.052;2023-04-28T13:11:00;96836.84;;;20.92;44.25
58367;BME280;57745;42.524;12.052;2023-04-28T13:13:28;96832.03;;;20.87;44.50
58367;BME280;57745;42.524;12.052;2023-04-28T13:15:54;96826.81;;;20.89;44.38